HRYR/KGL METAR and TAF weather

Enter ICAO airport designator
Station Type Date Time Source
HRYR METAR 2020/09/22 20:30 UTC NOAA

HRYR 222030Z 20005KT 170V230 9999 SCT026 SCT100 18/14 Q1022 NOSIG


Station Type Date Time Source
HRYR Decoded METAR 2020/09/22 20:30 UTC NOAA

Kigali, Rwanda (HRYR) 01-58S 030-07E 1497M
Sep 22, 2020 - 04:30 PM EDT / 2020.09.22 2030 UTC
Wind: from the SSW (200 degrees) at 6 MPH (5 KT) (direction variable):0
Visibility: greater than 7 mile(s):0
Sky conditions: partly cloudy
Temperature: 64 F (18 C)
Dew Point: 57 F (14 C)
Relative Humidity: 77%
Pressure (altimeter): 30.18 in. Hg (1022 hPa)
ob: HRYR 222030Z 20005KT 170V230 9999 SCT026 SCT100 18/14 Q1022 NOSIG
cycle: 20

Station Type Date Time Source
HRYR TAF 2020/09/22 18:09 UTC NOAA

TAF HRYR 221700Z 2218/2324 VRB05KT 9999 SCT025 BKN100
BECMG 2221/2300 30004KT SCT026 SCT100
BECMG 2302/2305 00000KT BKN025 SCT100 FM 230800 16008KT BKN023
TEMPO 2310/2314 12012KT -TSRA FEW024CB BKN025
BECMG 2317/2320 06006KT NSW SCT025

Example: see airport list